Time;durP1;ratioP1;P1;durP2;ratioP2;P2;SDS_P1;SDS_P2;PMS_P1;PMS_P2;Temp;Humidity;BMP_temperature;BMP_pressure;BME280_temperature;BME280_humidity;BME280_pressure;Samples;Min_cycle;Max_cycle;Signal;HPM_P1;HPM_P2
2022/09/12 00:00:14;;;;;;;1.85;1.38;;;16.10;99.90;;;;;;5030998;28;20099;-67
2022/09/12 00:02:40;;;;;;;2.35;1.67;;;16.10;99.90;;;;;;5031511;28;20105;-67
2022/09/12 00:05:06;;;;;;;3.25;1.67;;;16.10;99.90;;;;;;5031161;28;20033;-66
2022/09/12 00:07:33;;;;;;;4.32;1.33;;;16.10;99.90;;;;;;5035617;28;20064;-67
2022/09/12 00:09:58;;;;;;;1.92;1.40;;;16.10;99.90;;;;;;5030762;28;20076;-67
2022/09/12 00:12:24;;;;;;;2.97;1.55;;;16.10;99.90;;;;;;5031250;28;20049;-67
2022/09/12 00:14:50;;;;;;;3.90;1.45;;;16.10;99.90;;;;;;5030655;28;20025;-68
2022/09/12 00:17:16;;;;;;;3.78;1.20;;;16.10;99.90;;;;;;5030984;28;20025;-68
2022/09/12 00:19:42;;;;;;;2.08;1.15;;;16.10;99.90;;;;;;5030847;28;20037;-67
2022/09/12 00:22:07;;;;;;;2.33;0.90;;;16.10;99.90;;;;;;5030847;28;20100;-68
2022/09/12 00:24:33;;;;;;;1.40;0.98;;;16.10;99.90;;;;;;5044433;28;20461;-66
2022/09/12 00:26:59;;;;;;;2.10;1.00;;;16.10;99.90;;;;;;5031184;28;20021;-67
2022/09/12 00:29:25;;;;;;;2.63;1.13;;;16.10;99.90;;;;;;5030875;28;20030;-67
2022/09/12 00:31:50;;;;;;;1.05;0.95;;;16.00;99.90;;;;;;5030843;28;20132;-67
2022/09/12 00:34:16;;;;;;;2.22;1.10;;;16.10;99.90;;;;;;5030560;28;20393;-67
2022/09/12 00:36:42;;;;;;;1.23;0.93;;;16.10;99.90;;;;;;5030812;28;20475;-68
2022/09/12 00:39:13;;;;;;;3.97;0.80;;;16.00;99.90;;;;;;5030359;28;20110;-67
2022/09/12 00:41:39;;;;;;;4.07;1.05;;;16.10;99.90;;;;;;5030592;28;20028;-67
2022/09/12 00:44:20;;;;;;;2.03;1.17;;;16.10;99.90;;;;;;5030775;28;20029;-67
2022/09/12 00:46:56;;;;;;;1.88;0.95;;;16.00;99.90;;;;;;5030654;28;20026;-67
2022/09/12 00:49:33;;;;;;;2.60;0.95;;;16.10;99.90;;;;;;5030405;28;20096;-67
2022/09/12 00:52:07;;;;;;;4.93;1.10;;;16.00;99.90;;;;;;5030526;28;20043;-67
2022/09/12 00:54:40;;;;;;;2.47;1.08;;;16.00;99.90;;;;;;5030242;28;20022;-67
2022/09/12 00:57:08;;;;;;;2.88;1.10;;;16.10;99.90;;;;;;5034319;28;20471;-66
2022/09/12 00:59:45;;;;;;;1.83;1.10;;;16.00;99.90;;;;;;5034877;28;20424;-66
2022/09/12 01:02:11;;;;;;;1.13;0.80;;;16.00;99.90;;;;;;5029762;28;20500;-67
2022/09/12 01:04:38;;;;;;;1.65;1.13;;;16.00;99.90;;;;;;5030232;28;20091;-67
2022/09/12 01:07:05;;;;;;;0.80;0.70;;;16.00;99.90;;;;;;5038206;28;20131;-67
2022/09/12 01:09:31;;;;;;;0.95;0.70;;;16.00;99.90;;;;;;5036307;28;20033;-66
2022/09/12 01:11:57;;;;;;;1.50;1.13;;;16.00;99.90;;;;;;5030860;28;20361;-67
2022/09/12 01:14:23;;;;;;;1.40;1.08;;;16.00;99.90;;;;;;5034390;28;20104;-66
2022/09/12 01:16:50;;;;;;;2.75;0.63;;;16.00;99.90;;;;;;5029877;28;20120;-66
2022/09/12 01:19:34;;;;;;;2.63;0.70;;;15.90;99.90;;;;;;5030148;28;20025;-67
2022/09/12 01:22:24;;;;;;;1.45;0.98;;;15.90;99.90;;;;;;5030143;28;20113;-66
2022/09/12 01:25:08;;;;;;;2.70;0.70;;;15.90;99.90;;;;;;5033316;28;20035;-67
2022/09/12 01:28:08;;;;;;;3.30;1.13;;;15.90;99.90;;;;;;5032220;28;20026;-67
2022/09/12 01:30:39;;;;;;;1.42;1.02;;;15.80;99.90;;;;;;5032935;28;20029;-67
2022/09/12 01:33:05;;;;;;;2.20;0.97;;;15.80;99.90;;;;;;5033613;28;20472;-67
2022/09/12 01:36:05;;;;;;;0.75;0.68;;;15.80;99.90;;;;;;5030207;28;20024;-68
2022/09/12 01:38:35;;;;;;;1.30;0.80;;;15.80;99.90;;;;;;5030987;28;20073;-67
2022/09/12 01:41:15;;;;;;;1.48;0.88;;;15.80;99.90;;;;;;5029933;28;20029;-67
2022/09/12 01:44:08;;;;;;;1.98;0.85;;;15.80;99.90;;;;;;5029739;28;20067;-67
2022/09/12 01:46:41;;;;;;;;;;;15.80;99.90;;;;;;5033572;28;20056;-67
2022/09/12 01:49:25;;;;;;;1.38;0.93;;;15.70;99.90;;;;;;5030262;28;20356;-67
2022/09/12 01:52:12;;;;;;;1.75;1.05;;;15.70;99.90;;;;;;5033453;28;20535;-67
2022/09/12 01:54:48;;;;;;;2.15;0.80;;;15.70;99.90;;;;;;5031554;28;20033;-67
2022/09/12 01:57:21;;;;;;;2.70;0.90;;;15.70;99.90;;;;;;5031473;28;20031;-67
2022/09/12 01:59:51;;;;;;;3.50;1.10;;;15.60;99.90;;;;;;5046303;28;20124;-67
2022/09/12 02:02:51;;;;;;;2.42;1.35;;;15.60;99.90;;;;;;5031319;28;20464;-67
2022/09/12 02:05:32;;;;;;;3.17;1.35;;;15.60;99.90;;;;;;5031310;28;20109;-67
2022/09/12 02:08:07;;;;;;;2.25;0.80;;;15.60;99.90;;;;;;5045005;28;20095;-68
2022/09/12 02:10:41;;;;;;;4.40;1.00;;;15.60;99.90;;;;;;5031208;28;20033;-67
2022/09/12 02:13:17;;;;;;;2.70;1.02;;;15.50;99.90;;;;;;5033564;28;20029;-67
2022/09/12 02:15:50;;;;;;;2.58;1.08;;;15.40;99.90;;;;;;5034861;28;20100;-67
2022/09/12 02:18:18;;;;;;;1.70;1.00;;;15.50;99.90;;;;;;5035058;28;20043;-67
2022/09/12 02:20:47;;;;;;;1.80;1.10;;;15.40;99.90;;;;;;5034878;28;20028;-67
2022/09/12 02:23:23;;;;;;;2.13;1.42;;;15.40;99.90;;;;;;5034781;28;20034;-68
2022/09/12 02:25:53;;;;;;;1.00;0.80;;;15.30;99.90;;;;;;5042864;28;20028;-67
2022/09/12 02:28:32;;;;;;;0.80;0.80;;;15.30;99.90;;;;;;5040114;28;20076;-67
2022/09/12 02:31:29;;;;;;;1.63;1.00;;;15.30;99.90;;;;;;5034609;28;20034;-67
2022/09/12 02:34:32;;;;;;;3.90;0.90;;;15.30;99.90;;;;;;5048591;28;20159;-67
2022/09/12 02:37:16;;;;;;;2.17;0.98;;;15.20;99.90;;;;;;5034427;28;20032;-68
2022/09/12 02:39:42;;;;;;;1.65;1.00;;;15.20;99.90;;;;;;5034382;28;20049;-66
2022/09/12 02:42:07;;;;;;;2.38;1.13;;;15.20;99.90;;;;;;5034645;28;20388;-68
2022/09/12 02:44:35;;;;;;;2.30;0.90;;;15.10;99.90;;;;;;5034394;28;20036;-67
2022/09/12 02:47:13;;;;;;;3.42;1.15;;;15.10;99.90;;;;;;5035981;28;20022;-67
2022/09/12 02:49:39;;;;;;;1.73;1.05;;;15.10;99.90;;;;;;5034479;28;20029;-67
2022/09/12 02:52:05;;;;;;;1.98;1.08;;;15.10;99.90;;;;;;5041732;28;20033;-68
2022/09/12 02:54:31;;;;;;;1.77;0.80;;;15.00;99.90;;;;;;5054048;28;20025;-68
2022/09/12 02:56:57;;;;;;;9.68;1.27;;;15.00;99.90;;;;;;5047858;28;20375;-67
2022/09/12 02:59:25;;;;;;;3.00;0.98;;;15.00;99.90;;;;;;5035544;28;20033;-68
2022/09/12 03:02:24;;;;;;;1.73;0.93;;;14.90;99.90;;;;;;5033991;28;20025;-68
2022/09/12 03:04:56;;;;;;;4.05;0.90;;;14.90;99.90;;;;;;5034045;28;20028;-67
2022/09/12 03:07:45;;;;;;;1.55;0.63;;;14.90;99.90;;;;;;5045661;28;20037;-67
2022/09/12 03:10:34;;;;;;;2.85;1.20;;;14.90;99.90;;;;;;5049496;28;20029;-67
2022/09/12 03:13:24;;;;;;;2.15;1.33;;;14.80;99.90;;;;;;5033045;28;20064;-67
2022/09/12 03:16:18;;;;;;;2.90;1.23;;;14.80;99.90;;;;;;5040530;28;20032;-67
2022/09/12 03:18:49;;;;;;;1.23;0.80;;;14.80;99.90;;;;;;5033942;28;20383;-67
2022/09/12 03:21:50;;;;;;;1.52;1.15;;;14.70;99.90;;;;;;5037390;28;20057;-67
2022/09/12 03:24:47;;;;;;;2.35;1.02;;;14.80;99.90;;;;;;5030320;28;20033;-67
2022/09/12 03:27:19;;;;;;;3.30;1.45;;;14.70;99.90;;;;;;5031151;28;20532;-67
2022/09/12 03:29:47;;;;;;;1.23;0.85;;;14.70;99.90;;;;;;5030475;28;20415;-67
2022/09/12 03:32:13;;;;;;;2.85;1.08;;;14.70;99.90;;;;;;5030346;28;20029;-66
2022/09/12 03:34:40;;;;;;;3.60;1.10;;;14.60;99.90;;;;;;5026952;28;20399;-67
2022/09/12 03:37:05;;;;;;;1.80;1.40;;;14.60;99.90;;;;;;5031048;28;20113;-67
2022/09/12 03:39:31;;;;;;;4.22;1.30;;;14.60;99.90;;;;;;5030266;28;20052;-67
2022/09/12 03:41:57;;;;;;;1.50;1.23;;;14.60;99.90;;;;;;5027597;28;20029;-67
2022/09/12 03:44:23;;;;;;;2.97;1.08;;;14.50;99.90;;;;;;5030354;28;20030;-67
2022/09/12 03:46:49;;;;;;;2.58;1.30;;;14.50;99.90;;;;;;5030302;28;20025;-67
2022/09/12 03:49:16;;;;;;;3.70;1.17;;;14.50;99.90;;;;;;5030489;28;20025;-67
2022/09/12 03:51:42;;;;;;;7.50;1.40;;;14.50;99.90;;;;;;5030458;28;20021;-66
2022/09/12 03:54:09;;;;;;;2.17;1.02;;;14.50;99.90;;;;;;5029863;28;20451;-67
2022/09/12 03:56:34;;;;;;;4.07;1.60;;;14.40;99.90;;;;;;5030108;28;20029;-66
2022/09/12 03:59:03;;;;;;;2.78;1.30;;;14.40;99.90;;;;;;5032717;28;20572;-67
2022/09/12 04:01:29;;;;;;;4.10;1.25;;;14.40;99.90;;;;;;5040850;28;20427;-67
2022/09/12 04:03:54;;;;;;;2.75;1.23;;;14.40;99.90;;;;;;5050678;28;20036;-67
2022/09/12 04:06:21;;;;;;;5.00;1.35;;;14.40;99.90;;;;;;5038188;28;20030;-67
2022/09/12 04:08:49;;;;;;;2.33;1.30;;;14.40;99.90;;;;;;5031919;28;20041;-67
2022/09/12 04:11:16;;;;;;;4.32;1.60;;;14.40;99.90;;;;;;5032055;28;20609;-66
2022/09/12 04:13:43;;;;;;;4.88;1.50;;;14.40;99.90;;;;;;5032230;28;20026;-67
2022/09/12 04:16:10;;;;;;;3.97;1.73;;;14.30;99.90;;;;;;5039297;28;20087;-67
2022/09/12 04:18:36;;;;;;;4.28;1.85;;;14.30;99.90;;;;;;5050165;28;20507;-67
2022/09/12 04:21:24;;;;;;;4.97;1.65;;;14.40;99.90;;;;;;5043000;28;20029;-68
2022/09/12 04:23:50;;;;;;;4.15;1.83;;;14.40;99.90;;;;;;5032346;28;20091;-67
2022/09/12 04:26:17;;;;;;;1.98;1.52;;;14.40;99.90;;;;;;5033969;28;20048;-68
2022/09/12 04:28:45;;;;;;;3.40;1.85;;;14.40;99.90;;;;;;5038543;28;20029;-68
2022/09/12 04:31:22;;;;;;;8.65;2.38;;;14.50;99.90;;;;;;5039761;28;20025;-65
2022/09/12 04:34:00;;;;;;;6.82;2.78;;;14.80;99.90;;;;;;5032686;28;20037;-68
2022/09/12 04:36:28;;;;;;;2.90;1.60;;;15.40;99.90;;;;;;5036663;28;20033;-67
2022/09/12 04:38:54;;;;;;;7.60;1.67;;;15.60;99.90;;;;;;5041232;28;20530;-68
2022/09/12 04:41:21;;;;;;;4.97;2.22;;;16.10;99.90;;;;;;5035898;28;20017;-68
2022/09/12 04:43:52;;;;;;;3.63;2.17;;;16.20;99.90;;;;;;5049320;28;20375;-67
2022/09/12 04:46:21;;;;;;;2.70;1.85;;;16.70;99.90;;;;;;5042216;28;20034;-68
2022/09/12 04:48:47;;;;;;;3.95;2.33;;;16.90;99.90;;;;;;5037800;28;20021;-68
2022/09/12 04:51:26;;;;;;;9.25;3.10;;;17.40;99.90;;;;;;5035523;28;20116;-69
2022/09/12 04:53:56;;;;;;;5.38;3.63;;;17.30;99.90;;;;;;5038048;28;20029;-69
2022/09/12 04:56:23;;;;;;;5.45;3.42;;;17.80;99.90;;;;;;5034558;28;20495;-68
2022/09/12 04:58:49;;;;;;;5.43;3.00;;;17.90;99.90;;;;;;5047914;28;20040;-69
2022/09/12 05:01:17;;;;;;;4.45;2.78;;;18.30;99.90;;;;;;5048259;28;20027;-68
2022/09/12 05:03:45;;;;;;;3.63;2.60;;;18.60;99.90;;;;;;5031554;28;20018;-69
2022/09/12 05:06:17;;;;;;;2.92;2.25;;;19.00;99.90;;;;;;5035539;28;20022;-67
2022/09/12 05:08:42;;;;;;;3.15;2.05;;;19.00;99.90;;;;;;5060268;28;20045;-69
2022/09/12 05:11:17;;;;;;;4.00;2.00;;;18.80;99.90;;;;;;5037818;28;20044;-69
2022/09/12 05:13:43;;;;;;;3.17;2.05;;;19.70;99.90;;;;;;5031850;28;20021;-69
2022/09/12 05:16:11;;;;;;;2.50;2.22;;;19.70;99.90;;;;;;5042573;28;20040;-69
2022/09/12 05:18:38;;;;;;;3.28;2.40;;;19.70;99.90;;;;;;5039253;28;20111;-69
2022/09/12 05:21:06;;;;;;;3.78;2.08;;;19.70;99.90;;;;;;5041109;28;20072;-68
2022/09/12 05:23:33;;;;;;;3.50;1.88;;;20.40;99.90;;;;;;5031709;28;20029;-68
2022/09/12 05:25:59;;;;;;;3.17;1.60;;;20.10;99.90;;;;;;5044260;28;20025;-69
2022/09/12 05:28:29;;;;;;;2.83;1.40;;;20.10;99.90;;;;;;5033761;28;20036;-67
2022/09/12 05:31:11;;;;;;;3.63;1.70;;;18.70;99.90;;;;;;5042442;28;20036;-69
2022/09/12 05:33:38;;;;;;;7.15;2.58;;;18.20;99.90;;;;;;5043075;28;20053;-68
2022/09/12 05:36:06;;;;;;;8.75;2.03;;;17.80;99.90;;;;;;5035263;28;20515;-68
2022/09/12 05:38:36;;;;;;;4.65;2.47;;;17.70;99.90;;;;;;5044006;28;20029;-68
2022/09/12 05:41:07;;;;;;;2.80;1.60;;;17.50;99.90;;;;;;5033915;28;20100;-68
2022/09/12 05:43:34;;;;;;;7.30;2.67;;;17.40;99.90;;;;;;5031152;28;20128;-67
2022/09/12 05:46:07;;;;;;;5.75;1.88;;;17.30;99.90;;;;;;5031597;28;20025;-67
2022/09/12 05:48:34;;;;;;;6.07;1.55;;;17.40;99.90;;;;;;5039183;28;20163;-68
2022/09/12 05:51:20;;;;;;;3.67;1.85;;;17.30;99.90;;;;;;5035204;28;20018;-68
2022/09/12 05:53:49;;;;;;;2.67;1.88;;;17.20;99.90;;;;;;5037060;28;20033;-67
2022/09/12 05:56:18;;;;;;;2.63;1.85;;;17.40;99.90;;;;;;5039116;28;20060;-68
2022/09/12 05:58:47;;;;;;;5.10;2.00;;;17.40;99.90;;;;;;5046729;28;20056;-68
2022/09/12 06:01:17;;;;;;;5.38;1.90;;;17.60;99.90;;;;;;5035732;28;20134;-68
2022/09/12 06:03:46;;;;;;;3.85;1.60;;;17.60;99.90;;;;;;5035339;28;20049;-67
2022/09/12 06:06:13;;;;;;;2.28;1.73;;;17.50;99.90;;;;;;5035118;28;20030;-67
2022/09/12 06:08:42;;;;;;;2.80;1.70;;;17.40;99.90;;;;;;5042608;28;20625;-69
2022/09/12 06:11:10;;;;;;;4.57;2.38;;;17.30;99.90;;;;;;5044928;28;20095;-68
2022/09/12 06:13:37;;;;;;;3.55;2.20;;;17.30;99.90;;;;;;5035338;28;20049;-68
2022/09/12 06:16:12;;;;;;;4.18;2.08;;;17.50;99.90;;;;;;5034916;28;20018;-68
2022/09/12 06:18:40;;;;;;;6.53;2.30;;;17.40;99.90;;;;;;5036299;28;20428;-68
2022/09/12 06:21:07;;;;;;;8.85;2.55;;;17.30;99.90;;;;;;5050524;28;20028;-68
2022/09/12 06:23:34;;;;;;;5.40;2.65;;;17.40;99.90;;;;;;5038063;28;20100;-68
2022/09/12 06:26:00;;;;;;;4.68;2.35;;;17.30;99.90;;;;;;5040294;28;20160;-69
2022/09/12 06:28:27;;;;;;;7.00;2.95;;;17.20;99.90;;;;;;5032780;28;20025;-68
2022/09/12 06:30:53;;;;;;;6.45;3.08;;;17.20;99.90;;;;;;5043287;28;20474;-69
2022/09/12 06:33:19;;;;;;;4.20;2.63;;;17.40;99.90;;;;;;5036511;28;20033;-69
2022/09/12 06:35:45;;;;;;;4.88;2.42;;;17.50;99.90;;;;;;5038556;28;20526;-68
2022/09/12 06:38:11;;;;;;;7.47;3.05;;;17.40;99.90;;;;;;5038873;28;20029;-68
2022/09/12 06:40:45;;;;;;;4.45;2.35;;;17.60;99.90;;;;;;5052450;28;20025;-69
2022/09/12 06:43:12;;;;;;;6.20;2.85;;;17.70;99.90;;;;;;5034667;28;20033;-68
2022/09/12 06:45:39;;;;;;;4.65;3.17;;;17.90;99.90;;;;;;5047397;28;20523;-68
2022/09/12 06:48:05;;;;;;;8.25;3.55;;;18.10;99.90;;;;;;5043299;28;20028;-67
2022/09/12 06:50:31;;;;;;;6.88;3.30;;;18.30;99.90;;;;;;5042569;28;20029;-68
2022/09/12 06:52:56;;;;;;;4.10;2.70;;;18.40;99.90;;;;;;5036792;28;20026;-68
2022/09/12 06:55:23;;;;;;;4.30;3.10;;;18.30;99.90;;;;;;5046514;28;20021;-68
2022/09/12 06:57:51;;;;;;;3.97;2.85;;;18.50;99.90;;;;;;5033941;28;20040;-69
2022/09/12 07:00:16;;;;;;;7.35;3.50;;;18.50;99.90;;;;;;5044036;28;20051;-68
2022/09/12 07:02:42;;;;;;;5.93;3.17;;;18.60;99.90;;;;;;5051866;28;20025;-68
2022/09/12 07:05:09;;;;;;;7.30;3.55;;;18.60;99.90;;;;;;5035273;28;20025;-68
2022/09/12 07:07:35;;;;;;;5.43;3.15;;;18.60;99.90;;;;;;5037689;28;20487;-68
2022/09/12 07:10:01;;;;;;;4.32;2.78;;;18.70;99.90;;;;;;5035715;28;20044;-68
2022/09/12 07:12:29;;;;;;;5.07;3.05;;;18.80;99.90;;;;;;5051593;28;20021;-68
2022/09/12 07:14:55;;;;;;;8.55;2.95;;;19.00;99.90;;;;;;5037352;28;20363;-69
2022/09/12 07:17:21;;;;;;;5.15;3.10;;;19.10;99.90;;;;;;5033355;28;20159;-68
2022/09/12 07:19:46;;;;;;;4.57;2.72;;;19.20;99.90;;;;;;5040095;28;20756;-67
2022/09/12 07:22:12;;;;;;;5.18;3.20;;;19.20;99.90;;;;;;5042621;28;20623;-69
2022/09/12 07:24:40;;;;;;;6.00;2.95;;;19.40;99.90;;;;;;5042577;28;20013;-69
2022/09/12 07:27:05;;;;;;;5.03;3.35;;;19.70;99.90;;;;;;5046681;28;20053;-68
2022/09/12 07:29:31;;;;;;;9.23;3.40;;;19.80;99.90;;;;;;5039729;28;20098;-68
2022/09/12 07:31:58;;;;;;;7.35;3.22;;;19.90;99.90;;;;;;5037095;28;20041;-69
2022/09/12 07:34:24;;;;;;;4.05;2.58;;;19.70;99.90;;;;;;5047116;28;20029;-68
2022/09/12 07:36:50;;;;;;;8.50;3.78;;;19.40;99.90;;;;;;5041366;28;20490;-67
2022/09/12 07:39:16;;;;;;;5.88;2.80;;;19.80;99.90;;;;;;5047529;28;20132;-69
2022/09/12 07:41:41;;;;;;;5.63;3.33;;;19.70;99.90;;;;;;5039394;28;20072;-68
2022/09/12 07:44:07;;;;;;;3.67;2.65;;;19.80;99.90;;;;;;5050481;28;20021;-68
2022/09/12 07:46:34;;;;;;;4.78;2.85;;;19.90;99.90;;;;;;5039354;28;20052;-69
2022/09/12 07:49:00;;;;;;;4.20;2.60;;;19.80;99.90;;;;;;5047811;28;20048;-68
2022/09/12 07:51:28;;;;;;;4.43;2.47;;;20.00;99.90;;;;;;5050037;28;20053;-68
2022/09/12 07:53:55;;;;;;;3.22;2.13;;;20.00;99.90;;;;;;5033220;28;20518;-69
2022/09/12 07:56:21;;;;;;;5.63;2.40;;;19.80;99.90;;;;;;5046768;28;20021;-68
2022/09/12 07:58:47;;;;;;;5.05;2.33;;;19.90;99.90;;;;;;5038370;28;20026;-67
2022/09/12 08:01:16;;;;;;;4.70;2.55;;;19.90;99.90;;;;;;5031623;28;20079;-68
2022/09/12 08:03:43;;;;;;;5.97;2.85;;;20.20;99.90;;;;;;5032108;28;20031;-68
2022/09/12 08:06:22;;;;;;;5.88;2.72;;;20.10;99.90;;;;;;5043088;28;20063;-67
2022/09/12 08:08:49;;;;;;;5.25;2.30;;;19.80;99.90;;;;;;5042926;28;20038;-68
2022/09/12 08:11:18;;;;;;;8.55;2.42;;;19.80;99.90;;;;;;5043419;28;20096;-67
2022/09/12 08:13:44;;;;;;;5.00;2.70;;;20.00;99.90;;;;;;5038799;28;20044;-68
2022/09/12 08:16:13;;;;;;;3.85;2.25;;;20.20;99.90;;;;;;5046604;28;20060;-68
2022/09/12 08:18:39;;;;;;;7.07;3.00;;;20.30;99.90;;;;;;5037175;28;20393;-68
2022/09/12 08:21:23;;;;;;;4.45;2.35;;;20.40;99.90;;;;;;5033360;28;20029;-69
2022/09/12 08:23:56;;;;;;;6.78;2.03;;;20.40;99.90;;;;;;5036848;28;20026;-68
2022/09/12 08:26:23;;;;;;;4.50;2.67;;;20.60;99.90;;;;;;5034201;28;20545;-68
2022/09/12 08:28:50;;;;;;;3.83;2.40;;;21.10;99.90;;;;;;5032676;28;20026;-64
2022/09/12 08:31:18;;;;;;;2.58;2.15;;;20.50;99.90;;;;;;5032482;28;20033;-68
2022/09/12 08:33:44;;;;;;;5.03;2.38;;;20.60;99.90;;;;;;5045487;28;20030;-67
2022/09/12 08:36:10;;;;;;;4.88;2.60;;;20.60;99.90;;;;;;5045146;28;20112;-68
2022/09/12 08:38:38;;;;;;;3.45;2.33;;;20.80;99.90;;;;;;5036380;28;20087;-68
2022/09/12 08:41:39;;;;;;;4.07;2.50;;;20.60;99.90;;;;;;5036644;28;20112;-68
2022/09/12 08:44:08;;;;;;;3.95;2.30;;;20.70;99.90;;;;;;5029149;28;20087;-69
2022/09/12 08:46:58;;;;;;;4.60;2.15;;;20.80;99.90;;;;;;5023572;28;20451;-68
2022/09/12 08:49:34;;;;;;;3.00;2.30;;;20.60;99.90;;;;;;5030010;28;20022;-68
2022/09/12 08:52:12;;;;;;;6.55;2.20;;;20.90;99.90;;;;;;5029007;28;20038;-66
2022/09/12 08:54:38;;;;;;;5.72;2.40;;;20.70;99.90;;;;;;5016951;28;20026;-68
2022/09/12 08:57:08;;;;;;;3.25;2.65;;;20.80;99.90;;;;;;5029234;28;20068;-68
2022/09/12 08:59:38;;;;;;;5.90;2.17;;;20.90;99.90;;;;;;5029505;28;20053;-68
2022/09/12 09:02:33;;;;;;;6.15;2.70;;;21.00;99.90;;;;;;5028448;28;20056;-68
2022/09/12 09:05:10;;;;;;;3.83;2.17;;;21.10;99.90;;;;;;5028902;28;20045;-66
2022/09/12 09:08:18;;;;;;;3.65;2.30;;;21.20;99.90;;;;;;5029205;28;20061;-69
2022/09/12 09:11:16;;;;;;;4.03;2.50;;;21.10;99.90;;;;;;5023847;28;20056;-68
2022/09/12 09:16:41;;;;;;;6.93;2.58;;;21.00;99.90;;;;;;4988167;28;20066;-68
2022/09/12 09:19:17;;;;;;;4.65;2.30;;;21.20;99.90;;;;;;5022652;28;20044;-68
2022/09/12 09:21:53;;;;;;;3.42;2.00;;;21.10;99.90;;;;;;5020538;28;20065;-67
2022/09/12 09:24:25;;;;;;;4.43;2.17;;;21.20;99.90;;;;;;5017016;28;20068;-67
2022/09/12 09:26:54;;;;;;;;;;;21.30;99.90;;;;;;5010708;28;20069;-68
2022/09/12 09:29:32;;;;;;;4.75;2.10;;;21.40;99.90;;;;;;5011689;28;19905;-67
2022/09/12 09:32:02;;;;;;;6.00;2.05;;;21.40;99.90;;;;;;5028733;28;20063;-67
2022/09/12 09:34:30;;;;;;;5.28;2.28;;;21.60;99.90;;;;;;4995477;28;20053;-68
2022/09/12 09:37:16;;;;;;;3.42;1.95;;;21.40;99.90;;;;;;5009312;28;20536;-68
2022/09/12 09:40:17;;;;;;;9.70;2.17;;;21.50;99.90;;;;;;5009908;28;20411;-68
2022/09/12 09:43:28;;;;;;;4.00;2.10;;;21.40;99.90;;;;;;5009696;28;20045;-67
2022/09/12 09:45:56;;;;;;;3.50;2.05;;;21.10;98.80;;;;;;5025880;28;20046;-66
2022/09/12 09:48:24;;;;;;;2.65;1.90;;;21.40;99.90;;;;;;5019213;28;20401;-68
2022/09/12 09:50:51;;;;;;;2.80;2.03;;;21.60;99.90;;;;;;5022787;28;20037;-68
2022/09/12 09:53:44;;;;;;;4.03;2.55;;;21.60;99.90;;;;;;5030722;28;20392;-67
2022/09/12 09:56:30;;;;;;;;;;;21.50;99.90;;;;;;5037760;28;20017;-69
2022/09/12 09:58:56;;;;;;;4.38;2.08;;;21.60;96.40;;;;;;5034214;28;19917;-67
2022/09/12 10:01:23;;;;;;;3.00;2.38;;;21.50;98.80;;;;;;5031798;28;20036;-67
2022/09/12 10:03:54;;;;;;;4.18;2.08;;;21.50;99.90;;;;;;5031442;28;20116;-64
2022/09/12 10:06:33;;;;;;;4.20;1.98;;;21.80;99.90;;;;;;5039341;28;20115;-66
2022/09/12 10:09:13;;;;;;;2.92;2.25;;;21.80;99.90;;;;;;5037273;28;20380;-63
2022/09/12 10:11:40;;;;;;;4.13;2.30;;;21.70;99.90;;;;;;5031280;28;20033;-63
2022/09/12 10:14:27;;;;;;;3.47;2.00;;;21.90;99.90;;;;;;5044072;28;20017;-66
2022/09/12 10:16:53;;;;;;;2.72;2.00;;;21.90;99.90;;;;;;5030912;28;20057;-67
2022/09/12 10:19:25;;;;;;;4.38;1.98;;;22.00;99.90;;;;;;5030571;28;20026;-66
2022/09/12 10:21:53;;;;;;;2.22;1.85;;;21.80;99.90;;;;;;5029577;28;20156;-67
2022/09/12 10:24:26;;;;;;;5.45;2.38;;;21.80;99.90;;;;;;5034779;28;20036;-64
2022/09/12 10:27:12;;;;;;;5.00;2.00;;;21.80;99.90;;;;;;5031378;28;20383;-63
2022/09/12 10:29:50;;;;;;;3.15;2.08;;;21.80;98.50;;;;;;5033533;28;20029;-66
2022/09/12 10:32:34;;;;;;;3.70;1.73;;;22.00;99.90;;;;;;5029765;28;20040;-64
2022/09/12 10:35:22;;;;;;;4.05;2.17;;;21.90;99.90;;;;;;5042330;28;20033;-68
2022/09/12 10:37:59;;;;;;;4.03;2.33;;;22.00;99.90;;;;;;5048369;28;20033;-64
2022/09/12 10:40:54;;;;;;;3.03;1.83;;;22.00;99.90;;;;;;5034847;28;20042;-68
2022/09/12 10:43:30;;;;;;;2.83;1.63;;;21.90;98.30;;;;;;5034265;28;20079;-68
2022/09/12 10:45:57;;;;;;;3.50;2.45;;;22.20;99.40;;;;;;5034614;28;20033;-68
2022/09/12 10:48:31;;;;;;;5.47;2.13;;;22.20;99.60;;;;;;5034552;28;20053;-67
2022/09/12 10:50:58;;;;;;;1.95;1.70;;;22.10;93.20;;;;;;5034935;28;20087;-68
2022/09/12 10:53:28;;;;;;;3.13;2.20;;;22.10;95.50;;;;;;5034710;28;20025;-68
2022/09/12 10:56:17;;;;;;;3.35;2.03;;;22.20;96.40;;;;;;5034573;28;20033;-68
2022/09/12 10:58:59;;;;;;;5.63;2.50;;;22.40;96.30;;;;;;5034247;28;20045;-68
2022/09/12 11:01:31;;;;;;;4.43;2.33;;;22.10;97.90;;;;;;5034854;28;20427;-67
2022/09/12 11:04:19;;;;;;;3.85;2.13;;;22.30;99.40;;;;;;5034604;28;20033;-68
2022/09/12 11:06:48;;;;;;;3.53;2.13;;;22.40;96.50;;;;;;5038961;28;20129;-67
2022/09/12 11:09:18;;;;;;;3.22;2.42;;;22.70;99.00;;;;;;5043291;28;20033;-68
2022/09/12 11:11:49;;;;;;;4.20;2.10;;;22.80;96.80;;;;;;5034195;28;20115;-69
2022/09/12 11:14:21;;;;;;;2.90;1.70;;;22.60;91.10;;;;;;5033683;28;20082;-67
2022/09/12 11:17:17;;;;;;;3.75;1.98;;;22.00;95.10;;;;;;5034139;28;20030;-68
2022/09/12 11:20:10;;;;;;;3.58;2.25;;;22.10;96.70;;;;;;5029724;28;20052;-68
2022/09/12 11:22:57;;;;;;;5.78;2.63;;;22.20;99.70;;;;;;5033533;28;20483;-67
2022/09/12 11:26:08;;;;;;;3.08;2.10;;;22.50;98.90;;;;;;5033689;28;20542;-68
2022/09/12 11:28:44;;;;;;;6.20;2.55;;;22.40;92.80;;;;;;5028071;28;20026;-68
2022/09/12 11:31:24;;;;;;;5.90;2.40;;;22.30;94.70;;;;;;5031918;28;20040;-68
2022/09/12 11:33:51;;;;;;;5.25;3.00;;;22.40;96.40;;;;;;5031434;28;20044;-68
2022/09/12 11:36:52;;;;;;;7.57;3.95;;;22.60;93.90;;;;;;5031702;28;20120;-67
2022/09/12 11:39:33;;;;;;;14.98;10.60;;;22.70;95.70;;;;;;4991720;28;20054;-68
2022/09/12 11:42:04;;;;;;;21.48;16.50;;;22.80;91.90;;;;;;4991880;28;20501;-67
2022/09/12 11:44:41;;;;;;;22.70;18.15;;;22.60;93.60;;;;;;4991258;28;20038;-67
2022/09/12 11:47:11;;;;;;;10.52;6.72;;;22.50;94.10;;;;;;4991470;28;20039;-68
2022/09/12 11:49:49;;;;;;;12.88;6.10;;;22.50;95.80;;;;;;4992031;28;20153;-67
2022/09/12 11:52:17;;;;;;;5.55;2.42;;;22.60;94.40;;;;;;4991303;28;20042;-68
2022/09/12 11:54:49;;;;;;;3.53;2.33;;;22.70;96.00;;;;;;4991338;28;20070;-68
2022/09/12 11:57:24;;;;;;;3.35;1.80;;;23.00;96.00;;;;;;4991547;28;20409;-68
2022/09/12 12:00:07;;;;;;;2.38;1.80;;;22.80;93.20;;;;;;5011929;28;20492;-68
2022/09/12 12:02:46;;;;;;;2.88;1.73;;;22.90;92.20;;;;;;5009113;28;20062;-66
2022/09/12 12:05:24;;;;;;;6.70;2.45;;;23.10;93.90;;;;;;5010706;28;20037;-68
2022/09/12 12:07:51;;;;;;;3.03;2.10;;;22.80;93.90;;;;;;5024822;28;20477;-68
2022/09/12 12:10:41;;;;;;;2.97;2.05;;;23.00;94.50;;;;;;5011377;28;20057;-68
2022/09/12 12:13:24;;;;;;;2.17;1.70;;;23.00;92.80;;;;;;4971402;28;20115;-68
2022/09/12 12:15:58;;;;;;;4.75;2.10;;;23.00;95.60;;;;;;4988851;28;20540;-68
2022/09/12 12:18:26;;;;;;;4.10;1.98;;;23.00;93.50;;;;;;4990685;28;20035;-67
2022/09/12 12:20:54;;;;;;;5.47;2.47;;;22.90;92.30;;;;;;4991153;28;20064;-67
2022/09/12 12:23:28;;;;;;;4.75;2.10;;;22.90;95.10;;;;;;4990272;28;20033;-70
2022/09/12 12:25:56;;;;;;;3.50;2.17;;;22.90;92.20;;;;;;4990831;28;20041;-68
2022/09/12 12:28:49;;;;;;;3.75;2.03;;;22.90;95.20;;;;;;4990316;28;20473;-67
2022/09/12 12:31:16;;;;;;;2.25;1.83;;;23.20;95.20;;;;;;4971025;28;20057;-68
2022/09/12 12:33:44;;;;;;;3.17;1.90;;;23.20;90.90;;;;;;4971078;28;20453;-68
2022/09/12 12:36:32;;;;;;;3.90;2.10;;;23.20;94.10;;;;;;4971211;28;20046;-68
2022/09/12 12:39:18;;;;;;;5.55;2.22;;;23.20;88.50;;;;;;4970705;28;20073;-67
2022/09/12 12:41:45;;;;;;;4.00;1.98;;;23.20;92.70;;;;;;4970326;28;20053;-68
2022/09/12 12:44:44;;;;;;;2.90;1.70;;;23.20;90.50;;;;;;4970643;28;20030;-68
2022/09/12 12:47:37;;;;;;;4.00;2.35;;;23.10;91.50;;;;;;4971389;28;20022;-68
2022/09/12 12:50:10;;;;;;;4.47;2.13;;;23.10;92.30;;;;;;4980370;28;20050;-68
2022/09/12 12:53:00;;;;;;;3.63;1.80;;;23.20;92.00;;;;;;4990224;28;20547;-68
2022/09/12 12:55:45;;;;;;;2.72;1.77;;;23.20;90.70;;;;;;4990497;28;20400;-68
2022/09/12 12:58:31;;;;;;;2.78;2.30;;;23.00;91.10;;;;;;4989739;28;20161;-68
2022/09/12 13:01:10;;;;;;;2.83;2.00;;;23.20;92.80;;;;;;4990168;28;20046;-68
2022/09/12 13:03:39;;;;;;;4.82;2.20;;;23.40;91.90;;;;;;4990062;28;20037;-68
2022/09/12 13:06:18;;;;;;;4.85;2.28;;;23.30;92.40;;;;;;4989396;28;20433;-68
2022/09/12 13:08:54;;;;;;;3.60;1.85;;;23.30;90.70;;;;;;5040231;28;20064;-68
2022/09/12 13:11:30;;;;;;;3.72;2.28;;;23.50;91.60;;;;;;5036310;28;20029;-68
2022/09/12 13:14:06;;;;;;;4.18;2.15;;;23.60;92.70;;;;;;5031256;28;20476;-68
2022/09/12 13:16:58;;;;;;;4.63;2.58;;;23.50;93.90;;;;;;5031512;28;20451;-69
2022/09/12 13:19:28;;;;;;;4.45;2.38;;;23.50;91.70;;;;;;5031113;28;20037;-66
2022/09/12 13:21:56;;;;;;;3.92;2.15;;;23.70;91.60;;;;;;5031780;28;20108;-68